Time;durP1;ratioP1;P1;durP2;ratioP2;P2;SDS_P1;SDS_P2;PMS_P1;PMS_P2;Temp;Humidity;BMP_temperature;BMP_pressure;BME280_temperature;BME280_humidity;BME280_pressure;Samples;Min_cycle;Max_cycle;Signal;HPM_P1;HPM_P2
2023/08/18 00:02:23;;;;;;;9.23;8.13;;;;;;;20.57;69.83;96372.22;5066483;28;20419;-70
2023/08/18 00:04:49;;;;;;;12.43;7.57;;;;;;;20.49;69.84;96370.19;5066363;28;20874;-71
2023/08/18 00:07:15;;;;;;;8.67;7.40;;;;;;;20.28;70.60;96372.81;5066339;28;20166;-72
2023/08/18 00:09:40;;;;;;;7.17;6.47;;;;;;;20.33;70.31;96366.28;5066021;28;20190;-69
2023/08/18 00:12:06;;;;;;;10.47;7.57;;;;;;;20.14;70.94;96372.28;5073386;28;20430;-71
2023/08/18 00:14:33;;;;;;;9.60;8.37;;;;;;;19.93;71.80;96374.91;5086501;28;20178;-71
2023/08/18 00:16:58;;;;;;;10.53;7.30;;;;;;;20.20;70.67;96361.97;5086791;28;20201;-70
2023/08/18 00:19:23;;;;;;;8.30;6.97;;;;;;;19.98;71.51;96372.69;5086153;28;20948;-70
2023/08/18 00:21:49;;;;;;;8.63;7.40;;;;;;;19.79;72.21;96376.03;5086389;28;20201;-70
2023/08/18 00:24:14;;;;;;;8.87;7.90;;;;;;;19.32;73.86;96365.53;5086641;28;20184;-71
2023/08/18 00:26:39;;;;;;;9.63;7.47;;;;;;;19.32;74.10;96362.88;5087344;28;20635;-70
2023/08/18 00:29:05;;;;;;;10.43;7.70;;;;;;;19.06;75.13;96375.56;5092618;28;20250;-69
2023/08/18 00:31:30;;;;;;;10.07;8.83;;;;;;;18.88;75.77;96372.56;5094954;28;20619;-68
2023/08/18 00:33:56;;;;;;;10.07;8.30;;;;;;;19.13;74.92;96368.81;5103275;28;20196;-71
2023/08/18 00:36:21;;;;;;;8.97;7.77;;;;;;;19.58;73.02;96371.47;5102744;28;20172;-70
2023/08/18 00:38:47;;;;;;;10.23;8.63;;;;;;;19.79;72.05;96360.03;5103014;28;20286;-71
2023/08/18 00:41:13;;;;;;;9.43;8.53;;;;;;;19.84;71.66;96357.84;5095028;28;20201;-72
2023/08/18 00:43:38;;;;;;;8.60;7.60;;;;;;;19.95;71.07;96357.81;5090066;28;20184;-70
2023/08/18 00:46:04;;;;;;;11.20;8.23;;;;;;;19.85;71.46;96355.06;5089833;28;20403;-70
2023/08/18 00:48:29;;;;;;;10.20;7.47;;;;;;;19.96;71.13;96354.22;5089767;28;20222;-71
2023/08/18 00:50:56;;;;;;;7.37;6.67;;;;;;;20.10;70.19;96347.72;5089540;28;20223;-71
2023/08/18 00:53:21;;;;;;;9.53;7.03;;;;;;;20.17;70.17;96337.41;5089800;28;20329;-70
2023/08/18 00:55:48;;;;;;;9.00;7.37;;;;;;;20.08;70.41;96341.69;5089636;28;20411;-71
2023/08/18 00:58:13;;;;;;;15.17;7.40;;;;;;;20.12;70.23;96331.59;5089701;28;20670;-69
2023/08/18 01:00:40;;;;;;;12.57;7.87;;;;;;;20.18;69.88;96336.44;5089267;28;20455;-70
2023/08/18 01:03:06;;;;;;;7.67;7.00;;;;;;;20.24;69.87;96333.25;5089586;28;20254;-70
2023/08/18 01:05:32;;;;;;;7.80;7.00;;;;;;;20.16;70.22;96327.72;5089660;28;20411;-70
2023/08/18 01:07:58;;;;;;;7.70;7.00;;;;;;;20.15;70.24;96320.69;5089458;28;20260;-70
2023/08/18 01:10:25;;;;;;;12.10;8.07;;;;;;;20.05;70.43;96325.94;5088873;28;20438;-69
2023/08/18 01:13:14;;;;;;;7.97;7.07;;;;;;;19.82;70.68;96327.88;5074656;28;20417;-70
2023/08/18 01:15:43;;;;;;;8.97;6.90;;;;;;;19.88;70.75;96319.34;5069411;28;20412;-70
2023/08/18 01:18:11;;;;;;;7.30;6.60;;;;;;;19.84;70.85;96315.25;5069118;28;20515;-69
2023/08/18 01:20:37;;;;;;;7.67;6.90;;;;;;;19.99;70.50;96329.13;5068918;28;20464;-70
2023/08/18 01:23:04;;;;;;;7.90;7.20;;;;;;;19.92;70.34;96318.13;5068989;28;20419;-70
2023/08/18 01:25:30;;;;;;;10.47;7.30;;;;;;;19.87;70.58;96315.00;5069160;28;20404;-70
2023/08/18 01:27:58;;;;;;;7.40;6.47;;;;;;;20.01;70.15;96311.22;5068993;28;21118;-71
2023/08/18 01:30:32;;;;;;;7.03;6.40;;;;;;;20.07;69.65;96306.19;5068699;28;20505;-70
2023/08/18 01:33:08;;;;;;;11.00;7.37;;;;;;;20.10;69.51;96315.75;5069337;28;20824;-70
2023/08/18 01:35:35;;;;;;;10.77;6.70;;;;;;;20.01;69.74;96309.38;5068811;28;20412;-72
2023/08/18 01:38:02;;;;;;;7.47;6.77;;;;;;;19.75;70.49;96313.34;5068471;28;20436;-70
2023/08/18 01:40:30;;;;;;;8.53;6.53;;;;;;;19.85;70.36;96309.81;5068412;28;20586;-69
2023/08/18 01:42:58;;;;;;;8.53;6.80;;;;;;;19.89;70.22;96294.44;5068556;28;20737;-71
2023/08/18 01:45:23;;;;;;;7.57;6.87;;;;;;;19.92;69.85;96298.66;5068471;28;20405;-68
2023/08/18 01:47:49;;;;;;;10.70;6.80;;;;;;;19.98;69.86;96298.97;5068079;28;20408;-71
2023/08/18 01:50:14;;;;;;;9.30;6.80;;;;;;;19.83;70.25;96297.59;5068006;28;20193;-71
2023/08/18 01:52:39;;;;;;;11.00;7.10;;;;;;;19.97;69.86;96293.78;5068337;28;20163;-71
2023/08/18 01:55:05;;;;;;;7.23;6.33;;;;;;;19.85;70.19;96293.81;5068263;28;20227;-72
2023/08/18 01:57:30;;;;;;;7.47;6.47;;;;;;;19.84;70.01;96307.25;5068456;28;20220;-72
2023/08/18 01:59:56;;;;;;;9.30;6.10;;;;;;;19.82;70.11;96299.41;5067734;28;20201;-72
2023/08/18 02:02:21;;;;;;;6.80;6.20;;;;;;;19.84;69.99;96292.16;5068043;28;20184;-71
2023/08/18 02:04:47;;;;;;;21.70;7.70;;;;;;;19.90;69.86;96292.59;5068015;28;20310;-71
2023/08/18 02:07:12;;;;;;;6.27;5.67;;;;;;;20.18;68.87;96288.47;5068616;28;20178;-71
2023/08/18 02:09:38;;;;;;;10.20;6.50;;;;;;;20.08;69.11;96291.91;5068261;28;20647;-71
2023/08/18 02:12:03;;;;;;;8.30;6.33;;;;;;;20.01;69.51;96288.06;5074817;28;20219;-69
2023/08/18 02:14:29;;;;;;;7.20;6.50;;;;;;;19.91;69.63;96275.63;5088523;28;20178;-70
2023/08/18 02:16:56;;;;;;;8.63;6.87;;;;;;;20.00;69.46;96273.03;5088097;28;20181;-70
2023/08/18 02:19:21;;;;;;;9.20;6.53;;;;;;;20.08;69.03;96267.09;5087476;28;20280;-71
2023/08/18 02:21:47;;;;;;;7.17;6.47;;;;;;;20.18;68.66;96272.50;5087889;28;21007;-71
2023/08/18 02:24:12;;;;;;;7.33;6.63;;;;;;;20.15;68.50;96268.28;5088080;28;20173;-69
2023/08/18 02:26:38;;;;;;;10.27;6.77;;;;;;;20.17;68.37;96273.44;5088241;28;20180;-70
2023/08/18 02:29:03;;;;;;;8.50;6.90;;;;;;;19.67;69.64;96276.66;5087788;28;20193;-71
2023/08/18 02:31:29;;;;;;;6.70;6.10;;;;;;;19.69;69.70;96280.09;5087983;28;20157;-70
2023/08/18 02:33:54;;;;;;;9.40;6.80;;;;;;;19.91;68.92;96272.97;5087790;28;20504;-71
2023/08/18 02:36:20;;;;;;;10.97;7.17;;;;;;;19.88;68.70;96280.25;5087714;28;20276;-71
2023/08/18 02:38:45;;;;;;;7.80;7.10;;;;;;;20.01;68.05;96282.75;5087481;28;20185;-69
2023/08/18 02:41:10;;;;;;;8.63;7.37;;;;;;;20.04;67.78;96287.81;5087591;28;20201;-71
2023/08/18 02:43:38;;;;;;;17.43;7.53;;;;;;;20.13;67.46;96277.38;5088472;28;20165;-72
2023/08/18 02:46:04;;;;;;;9.13;7.47;;;;;;;19.92;68.11;96278.19;5088098;28;20197;-71
2023/08/18 02:48:30;;;;;;;8.93;7.33;;;;;;;20.00;67.89;96272.22;5087775;28;20439;-72
2023/08/18 02:51:06;;;;;;;13.47;7.27;;;;;;;19.99;67.81;96281.19;5086900;28;20269;-71
2023/08/18 02:53:32;;;;;;;8.00;6.70;;;;;;;19.93;67.86;96269.22;5087827;28;20264;-70
2023/08/18 02:55:58;;;;;;;7.80;7.10;;;;;;;19.84;68.29;96272.63;5087507;28;20419;-70
2023/08/18 02:58:28;;;;;;;11.70;7.00;;;;;;;19.90;67.95;96272.13;5087421;28;20404;-70
2023/08/18 03:00:55;;;;;;;11.97;7.50;;;;;;;20.06;67.21;96259.22;5085740;28;20470;-70
2023/08/18 03:03:20;;;;;;;9.40;8.10;;;;;;;20.13;67.03;96253.38;5087738;28;20408;-71
2023/08/18 03:05:46;;;;;;;9.50;8.13;;;;;;;20.09;66.75;96247.47;5087513;28;20408;-70
2023/08/18 03:08:12;;;;;;;8.83;7.13;;;;;;;20.09;66.65;96239.47;5087182;28;20351;-71
2023/08/18 03:10:37;;;;;;;8.03;7.27;;;;;;;19.91;67.11;96239.19;5086734;28;20185;-72
2023/08/18 03:13:05;;;;;;;16.90;7.20;;;;;;;19.84;67.17;96248.66;5072328;28;20174;-71
2023/08/18 03:15:31;;;;;;;7.70;7.00;;;;;;;19.91;67.13;96241.84;5067453;28;20223;-72
2023/08/18 03:17:57;;;;;;;9.90;6.80;;;;;;;19.79;67.33;96240.22;5067324;28;20784;-71
2023/08/18 03:20:23;;;;;;;9.43;8.20;;;;;;;19.90;66.99;96237.50;5067000;28;20284;-70
2023/08/18 03:22:48;;;;;;;11.87;8.73;;;;;;;19.86;66.94;96246.72;5067812;28;20413;-71
2023/08/18 03:25:14;;;;;;;10.60;7.20;;;;;;;19.76;67.26;96253.81;5067097;28;20519;-70
2023/08/18 03:27:40;;;;;;;9.97;7.50;;;;;;;19.72;67.41;96249.69;5066839;28;20180;-72
2023/08/18 03:30:07;;;;;;;12.50;7.87;;;;;;;19.83;67.02;96247.00;5066623;28;20209;-72
2023/08/18 03:32:32;;;;;;;12.13;7.97;;;;;;;19.70;67.67;96244.53;5067022;28;21024;-69
2023/08/18 03:34:58;;;;;;;10.10;7.83;;;;;;;19.54;67.96;96258.22;5067224;28;20491;-71
2023/08/18 03:37:23;;;;;;;9.53;7.63;;;;;;;19.48;68.54;96260.53;5066884;28;20241;-71
2023/08/18 03:39:52;;;;;;;14.20;8.50;;;;;;;19.43;68.53;96267.06;5066403;28;20285;-71
2023/08/18 03:42:17;;;;;;;9.70;7.10;;;;;;;19.44;68.86;96259.91;5066904;28;20201;-71
2023/08/18 03:44:42;;;;;;;9.10;6.67;;;;;;;19.38;69.21;96257.78;5066841;28;20416;-70
2023/08/18 03:47:08;;;;;;;15.83;7.43;;;;;;;19.33;69.31;96255.47;5066932;28;20173;-69
2023/08/18 03:49:34;;;;;;;11.20;6.70;;;;;;;19.39;68.89;96251.47;5066787;28;20277;-70
2023/08/18 03:51:59;;;;;;;11.23;7.60;;;;;;;19.50;68.58;96253.25;5066962;28;20180;-71
2023/08/18 03:54:24;;;;;;;13.40;8.00;;;;;;;19.23;69.60;96251.88;5066794;28;20198;-71
2023/08/18 03:56:50;;;;;;;7.43;6.50;;;;;;;19.24;69.29;96251.75;5066772;28;20304;-70
2023/08/18 03:59:16;;;;;;;8.00;6.87;;;;;;;19.24;69.47;96245.59;5066169;28;20600;-71
2023/08/18 04:01:41;;;;;;;13.07;7.97;;;;;;;19.29;69.19;96245.22;5067841;28;20264;-70
2023/08/18 04:04:06;;;;;;;26.93;8.13;;;;;;;19.36;68.84;96249.06;5070533;28;20190;-70
2023/08/18 04:06:32;;;;;;;17.20;7.43;;;;;;;19.29;69.26;96247.88;5070418;28;20178;-71
2023/08/18 04:09:06;;;;;;;12.23;6.87;;;;;;;19.43;68.77;96250.25;5070112;28;20208;-69
2023/08/18 04:11:35;;;;;;;22.00;8.63;;;;;;;19.49;68.40;96248.91;5073005;28;20626;-70
2023/08/18 04:14:02;;;;;;;16.97;7.30;;;;;;;19.51;68.42;96246.94;5090572;28;20415;-70
2023/08/18 04:16:31;;;;;;;12.40;5.90;;;;;;;19.46;68.87;96242.88;5091823;28;20411;-69
2023/08/18 04:18:57;;;;;;;11.60;7.17;;;;;;;19.23;69.35;96250.06;5089956;28;20952;-70
2023/08/18 04:21:22;;;;;;;7.70;7.10;;;;;;;19.29;69.48;96253.19;5089954;28;20542;-71
2023/08/18 04:23:47;;;;;;;8.77;7.70;;;;;;;19.26;69.40;96256.94;5090184;28;20277;-70
2023/08/18 04:26:13;;;;;;;9.57;6.70;;;;;;;19.24;69.63;96257.06;5089393;28;20224;-71
2023/08/18 04:28:38;;;;;;;11.67;6.97;;;;;;;19.22;69.61;96258.16;5090996;28;20974;-70
2023/08/18 04:31:04;;;;;;;30.47;7.63;;;;;;;19.20;69.93;96258.28;5090149;28;20630;-69
2023/08/18 04:33:29;;;;;;;9.57;7.17;;;;;;;19.12;70.00;96252.75;5090670;28;20257;-70
2023/08/18 04:35:55;;;;;;;35.30;9.37;;;;;;;19.07;70.36;96265.56;5090670;28;20189;-71
2023/08/18 04:38:20;;;;;;;18.17;9.10;;;;;;;19.04;69.58;96279.13;5105863;28;20181;-71
2023/08/18 04:40:59;;;;;;;14.83;8.30;;;;;;;19.16;69.67;96278.13;5089761;28;20300;-71
2023/08/18 04:43:26;;;;;;;11.83;7.10;;;;;;;19.32;69.05;96276.88;5090279;28;20176;-72
2023/08/18 04:45:52;;;;;;;8.60;7.20;;;;;;;19.23;69.19;96276.66;5088970;28;20411;-72
2023/08/18 04:48:18;;;;;;;9.50;7.50;;;;;;;19.25;69.11;96284.50;5090194;28;20416;-71
2023/08/18 04:50:44;;;;;;;11.23;7.63;;;;;;;18.84;70.14;96280.69;5089517;28;21098;-72
2023/08/18 04:53:10;;;;;;;23.17;9.23;;;;;;;18.86;70.20;96289.41;5090084;28;20415;-72
2023/08/18 04:55:35;;;;;;;13.97;7.97;;;;;;;19.09;69.79;96300.88;5090408;28;20592;-70
2023/08/18 04:58:01;;;;;;;22.53;8.20;;;;;;;18.85;69.90;96292.16;5090113;28;20630;-70
2023/08/18 05:00:26;;;;;;;9.33;6.90;;;;;;;19.07;69.45;96297.50;5089705;28;20679;-72
2023/08/18 05:02:52;;;;;;;14.03;7.53;;;;;;;19.15;69.00;96300.38;5089944;28;20314;-70
2023/08/18 05:05:18;;;;;;;11.20;9.43;;;;;;;18.88;70.27;96292.78;5089739;28;20165;-70
2023/08/18 05:07:44;;;;;;;11.00;7.77;;;;;;;18.66;71.10;96301.56;5089607;28;20177;-71
2023/08/18 05:10:09;;;;;;;10.27;8.70;;;;;;;18.59;71.07;96297.66;5089427;28;20534;-71
2023/08/18 05:12:34;;;;;;;17.20;7.90;;;;;;;18.82;70.63;96294.09;5078146;28;20174;-72
2023/08/18 05:15:00;;;;;;;9.70;8.70;;;;;;;19.12;69.24;96292.63;5071737;28;20178;-72
2023/08/18 05:17:25;;;;;;;9.60;8.60;;;;;;;19.02;69.71;96294.34;5072616;28;20190;-72
2023/08/18 05:19:51;;;;;;;9.47;8.30;;;;;;;19.34;68.40;96299.72;5073591;28;20193;-72
2023/08/18 05:22:16;;;;;;;10.93;7.93;;;;;;;19.56;67.46;96292.66;5073740;28;20205;-72
2023/08/18 05:24:41;;;;;;;9.17;8.27;;;;;;;19.33;68.22;96291.91;5069527;28;20638;-70
2023/08/18 05:27:07;;;;;;;9.23;7.10;;;;;;;19.52;67.36;96294.75;5069517;28;20253;-71
2023/08/18 05:29:32;;;;;;;14.53;7.80;;;;;;;19.93;66.67;96290.50;5069012;28;20332;-71
2023/08/18 05:31:57;;;;;;;8.97;7.70;;;;;;;20.17;65.34;96284.94;5069272;28;20178;-71
2023/08/18 05:34:24;;;;;;;8.93;8.00;;;;;;;20.21;65.07;96289.03;5069943;28;20183;-71
2023/08/18 05:36:51;;;;;;;12.87;7.53;;;;;;;20.23;65.49;96291.59;5068990;28;20166;-70
2023/08/18 05:39:16;;;;;;;23.00;8.10;;;;;;;20.60;63.90;96288.47;5068331;28;20451;-71
2023/08/18 05:41:43;;;;;;;8.13;7.07;;;;;;;20.80;63.17;96282.28;5068672;28;20448;-71
2023/08/18 05:44:09;;;;;;;21.77;8.13;;;;;;;20.89;63.10;96289.47;5068619;28;20307;-71
2023/08/18 05:46:34;;;;;;;21.47;8.10;;;;;;;20.93;63.40;96290.06;5068460;28;20807;-71
2023/08/18 05:49:00;;;;;;;15.73;7.50;;;;;;;21.08;63.19;96298.53;5068139;28;20224;-70
2023/08/18 05:51:25;;;;;;;27.83;10.93;;;;;;;20.91;63.75;96292.84;5068419;28;20197;-71
2023/08/18 05:53:51;;;;;;;51.20;12.20;;;;;;;21.10;63.25;96299.25;5068357;28;20580;-70
2023/08/18 05:56:17;;;;;;;9.97;7.10;;;;;;;20.51;65.33;96298.09;5068406;28;20212;-70
2023/08/18 05:58:43;;;;;;;15.63;6.93;;;;;;;20.77;64.92;96305.72;5068330;28;20181;-69
2023/08/18 06:01:08;;;;;;;21.50;9.00;;;;;;;20.85;64.33;96303.22;5068218;28;20475;-69
2023/08/18 06:03:34;;;;;;;9.20;7.53;;;;;;;20.55;64.72;96312.84;5068234;28;20198;-73
2023/08/18 06:06:03;;;;;;;8.37;7.30;;;;;;;20.71;64.40;96310.56;5068398;28;20178;-71
2023/08/18 06:08:28;;;;;;;20.87;7.80;;;;;;;20.39;65.08;96307.97;5068063;28;20186;-70
2023/08/18 06:10:55;;;;;;;9.83;8.93;;;;;;;20.01;66.77;96319.19;5067891;28;20822;-72
2023/08/18 06:13:20;;;;;;;9.47;7.90;;;;;;;20.00;67.30;96315.66;5085703;28;20237;-71
2023/08/18 06:15:46;;;;;;;9.97;7.57;;;;;;;20.51;65.33;96317.59;5088761;28;20452;-71
2023/08/18 06:18:11;;;;;;;11.53;8.40;;;;;;;20.65;65.46;96316.44;5088205;28;20726;-71
2023/08/18 06:20:37;;;;;;;10.30;7.13;;;;;;;20.61;65.50;96316.84;5087729;28;20241;-71
2023/08/18 06:23:02;;;;;;;11.10;6.90;;;;;;;21.06;64.08;96325.34;5088435;28;20710;-71
2023/08/18 06:25:28;;;;;;;13.23;7.27;;;;;;;21.51;62.79;96313.44;5087244;28;20302;-71
2023/08/18 06:27:53;;;;;;;20.40;8.33;;;;;;;22.25;60.27;96315.63;5088246;28;20282;-70
2023/08/18 06:30:19;;;;;;;17.73;8.17;;;;;;;22.67;58.68;96322.50;5087704;28;20197;-71
2023/08/18 06:32:45;;;;;;;8.50;7.70;;;;;;;22.96;57.73;96325.94;5087956;28;20203;-71
2023/08/18 06:35:10;;;;;;;9.83;7.40;;;;;;;22.77;58.13;96329.53;5088025;28;20163;-72
2023/08/18 06:37:36;;;;;;;10.47;7.80;;;;;;;22.19;59.78;96327.72;5088398;28;20496;-71
2023/08/18 06:40:02;;;;;;;15.63;9.30;;;;;;;22.52;59.33;96330.97;5088319;28;20709;-71
2023/08/18 06:42:27;;;;;;;9.03;7.83;;;;;;;22.94;58.33;96327.91;5088163;28;20183;-70
2023/08/18 06:44:53;;;;;;;11.60;8.97;;;;;;;23.17;57.41;96324.91;5088080;28;20499;-72
2023/08/18 06:47:18;;;;;;;11.03;7.80;;;;;;;23.19;57.30;96322.91;5100526;28;20592;-71
2023/08/18 06:49:43;;;;;;;9.43;8.23;;;;;;;23.03;57.66;96324.41;5099631;28;20221;-71
2023/08/18 06:52:09;;;;;;;9.73;8.03;;;;;;;22.98;58.23;96325.78;5093528;28;20185;-70
2023/08/18 06:54:34;;;;;;;9.77;8.40;;;;;;;22.51;59.39;96334.63;5089805;28;20169;-70
2023/08/18 06:57:00;;;;;;;9.03;8.23;;;;;;;22.94;58.28;96330.59;5091623;28;20173;-69
2023/08/18 06:59:26;;;;;;;9.30;8.40;;;;;;;22.86;58.34;96325.09;5087420;28;20565;-71
2023/08/18 07:01:53;;;;;;;8.67;7.60;;;;;;;22.91;58.58;96325.50;5088782;28;20415;-72
2023/08/18 07:04:19;;;;;;;26.17;9.70;;;;;;;22.75;59.12;96333.34;5088421;28;20576;-69
2023/08/18 07:06:45;;;;;;;34.17;10.93;;;;;;;22.43;60.23;96334.50;5089557;28;20446;-70
2023/08/18 07:09:11;;;;;;;8.63;7.47;;;;;;;23.08;58.57;96328.44;5090527;28;20699;-74
2023/08/18 07:11:37;;;;;;;9.23;8.23;;;;;;;22.61;60.10;96335.47;5084863;28;20496;-69
2023/08/18 07:14:03;;;;;;;9.70;8.80;;;;;;;23.43;57.41;96330.41;5070603;28;20546;-72
2023/08/18 07:16:29;;;;;;;30.03;11.07;;;;;;;23.60;57.20;96332.31;5068067;28;20181;-69
2023/08/18 07:18:54;;;;;;;17.43;8.10;;;;;;;24.46;55.08;96322.94;5066799;28;20436;-69
2023/08/18 07:21:20;;;;;;;12.10;6.87;;;;;;;25.01;53.08;96324.53;5067191;28;20499;-73
2023/08/18 07:23:45;;;;;;;8.40;7.60;;;;;;;25.06;52.81;96327.56;5067163;28;20265;-73
2023/08/18 07:26:10;;;;;;;11.90;7.20;;;;;;;25.38;52.25;96329.63;5067026;28;20631;-72
2023/08/18 07:28:36;;;;;;;7.57;6.90;;;;;;;25.23;52.23;96329.41;5067302;28;20166;-73
2023/08/18 07:31:04;;;;;;;9.63;7.80;;;;;;;24.69;54.01;96334.06;5067159;28;20177;-73
2023/08/18 07:33:30;;;;;;;9.43;7.23;;;;;;;25.89;51.28;96327.81;5067469;28;20565;-72
2023/08/18 07:35:56;;;;;;;11.97;8.87;;;;;;;25.11;52.38;96334.16;5067477;28;20404;-70
2023/08/18 07:38:22;;;;;;;8.00;7.30;;;;;;;25.10;52.83;96337.84;5071848;28;20170;-72
2023/08/18 07:40:47;;;;;;;8.87;8.07;;;;;;;25.43;52.64;96331.81;5071484;28;20292;-69
2023/08/18 07:43:14;;;;;;;8.20;7.40;;;;;;;25.63;52.03;96335.09;5071025;28;20269;-71
2023/08/18 07:45:39;;;;;;;8.57;7.67;;;;;;;25.04;53.46;96334.94;5071029;28;20514;-71
2023/08/18 07:48:05;;;;;;;10.27;7.50;;;;;;;24.88;54.07;96343.75;5071078;28;20506;-71
2023/08/18 07:50:31;;;;;;;9.40;6.80;;;;;;;25.10;53.43;96332.47;5070654;28;20202;-71
2023/08/18 07:52:56;;;;;;;9.30;7.60;;;;;;;25.26;52.94;96342.50;5069414;28;20344;-72
2023/08/18 07:55:22;;;;;;;9.93;8.80;;;;;;;25.01;52.92;96346.84;5070777;28;20185;-72
2023/08/18 07:57:47;;;;;;;13.20;8.80;;;;;;;24.78;54.06;96351.91;5070605;28;20178;-70
2023/08/18 08:00:17;;;;;;;8.97;8.07;;;;;;;24.28;54.79;96353.31;5068660;28;20208;-70
2023/08/18 08:02:47;;;;;;;8.97;8.07;;;;;;;24.45;54.77;96348.94;5070594;28;20219;-71
2023/08/18 08:05:12;;;;;;;11.30;8.53;;;;;;;24.44;54.71;96343.72;5068829;28;20463;-72
2023/08/18 08:07:39;;;;;;;9.20;6.60;;;;;;;24.79;54.10;96345.53;5070423;28;20424;-71
2023/08/18 08:10:04;;;;;;;9.07;8.17;;;;;;;24.46;54.68;96347.09;5069796;28;20324;-71
2023/08/18 08:12:31;;;;;;;8.63;7.50;;;;;;;24.62;54.86;96339.22;5070375;28;20935;-71
2023/08/18 08:14:57;;;;;;;14.03;7.70;;;;;;;24.64;54.89;96344.44;5070367;28;20170;-72
2023/08/18 08:17:24;;;;;;;9.40;6.90;;;;;;;24.49;55.78;96342.28;5070383;28;20870;-70
2023/08/18 08:19:49;;;;;;;7.57;6.50;;;;;;;24.76;55.17;96334.25;5070293;28;21002;-71
2023/08/18 08:22:16;;;;;;;10.10;8.57;;;;;;;25.05;53.71;96331.28;5071106;28;20543;-70
2023/08/18 08:24:42;;;;;;;11.03;7.23;;;;;;;25.03;54.25;96333.28;5070927;28;20201;-71
2023/08/18 08:27:07;;;;;;;9.00;7.13;;;;;;;25.08;54.04;96336.31;5070911;28;20455;-71
2023/08/18 08:29:33;;;;;;;8.77;7.60;;;;;;;24.30;56.00;96342.41;5071043;28;20202;-70
2023/08/18 08:31:58;;;;;;;8.60;7.80;;;;;;;24.84;55.23;96329.78;5070249;28;20185;-70
2023/08/18 08:34:24;;;;;;;8.33;7.23;;;;;;;24.46;55.91;96337.22;5071367;28;20534;-70
2023/08/18 08:36:49;;;;;;;8.50;7.03;;;;;;;24.87;54.06;96334.00;5069998;28;20265;-72
2023/08/18 08:39:15;;;;;;;23.33;7.20;;;;;;;25.35;53.23;96333.47;5070460;28;20193;-70
2023/08/18 08:41:40;;;;;;;9.40;6.90;;;;;;;25.87;52.30;96329.84;5070375;28;20225;-71
2023/08/18 08:44:05;;;;;;;7.00;6.27;;;;;;;25.65;53.09;96333.91;5070598;28;20240;-71
2023/08/18 08:46:33;;;;;;;7.07;6.37;;;;;;;25.86;52.04;96327.25;5070301;28;20241;-71
2023/08/18 08:49:03;;;;;;;7.03;6.33;;;;;;;25.70;52.63;96328.06;5069314;28;20201;-69
2023/08/18 08:51:33;;;;;;;7.13;5.70;;;;;;;26.46;50.62;96324.38;5070368;28;20400;-73
2023/08/18 08:54:01;;;;;;;14.17;6.37;;;;;;;26.33;50.97;96318.63;5070206;28;20408;-68
2023/08/18 08:56:31;;;;;;;6.87;5.83;;;;;;;25.69;52.23;96319.16;5070308;28;20416;-71
2023/08/18 08:58:57;;;;;;;7.30;5.93;;;;;;;25.85;51.59;96317.53;5069760;28;20550;-72
2023/08/18 09:01:23;;;;;;;8.77;5.40;;;;;;;26.13;50.62;96318.97;5069908;28;20855;-72
2023/08/18 09:03:49;;;;;;;6.33;5.60;;;;;;;26.21;50.46;96322.66;5070015;28;20174;-71
2023/08/18 09:06:14;;;;;;;6.40;5.80;;;;;;;25.60;51.70;96324.66;5068169;28;20177;-71
2023/08/18 09:08:41;;;;;;;9.03;5.50;;;;;;;25.98;50.53;96329.53;5069704;28;20846;-69
2023/08/18 09:11:08;;;;;;;11.17;5.33;;;;;;;26.82;48.82;96321.34;5069736;28;20253;-71
2023/08/18 09:13:34;;;;;;;5.67;4.90;;;;;;;26.27;49.94;96330.03;5088722;28;20514;-70
2023/08/18 09:16:06;;;;;;;5.77;5.17;;;;;;;25.35;51.49;96329.97;5089673;28;20416;-69
2023/08/18 09:18:33;;;;;;;9.63;5.00;;;;;;;26.13;50.11;96323.50;5089488;28;20431;-71
2023/08/18 09:21:06;;;;;;;6.60;5.70;;;;;;;25.33;52.40;96331.97;5089464;28;20487;-68
2023/08/18 09:23:31;;;;;;;5.60;5.10;;;;;;;25.91;50.27;96333.03;5089652;28;20415;-70
2023/08/18 09:25:58;;;;;;;8.63;4.50;;;;;;;26.08;51.04;96329.38;5089749;28;20483;-69
2023/08/18 09:28:24;;;;;;;6.57;4.03;;;;;;;26.20;50.46;96332.59;5089182;28;20210;-71
2023/08/18 09:30:49;;;;;;;6.50;4.80;;;;;;;26.16;50.97;96340.13;5089456;28;20424;-71
2023/08/18 09:33:15;;;;;;;5.80;5.30;;;;;;;26.23;49.08;96342.16;5089434;28;20785;-72
2023/08/18 09:35:40;;;;;;;9.40;4.73;;;;;;;26.24;48.40;96336.59;5089584;28;20711;-69
2023/08/18 09:38:06;;;;;;;5.33;4.57;;;;;;;26.23;48.62;96344.84;5089737;28;20187;-69
2023/08/18 09:40:31;;;;;;;6.43;3.73;;;;;;;25.86;48.65;96340.72;5089286;28;20204;-71
2023/08/18 09:42:57;;;;;;;3.30;2.90;;;;;;;26.04;48.23;96333.41;5090766;28;20174;-70
2023/08/18 09:45:24;;;;;;;5.43;4.03;;;;;;;25.90;48.69;96331.34;5092341;28;20178;-71
2023/08/18 09:47:54;;;;;;;8.97;3.77;;;;;;;26.98;46.42;96321.31;5093002;28;20176;-71
2023/08/18 09:50:23;;;;;;;8.60;4.90;;;;;;;26.45;47.81;96324.53;5090288;28;20430;-70
2023/08/18 09:52:52;;;;;;;5.17;4.77;;;;;;;26.27;47.30;96330.91;5094077;28;20416;-70
2023/08/18 09:55:23;;;;;;;20.83;5.00;;;;;;;26.86;45.97;96313.75;5106456;28;20399;-71
2023/08/18 09:58:03;;;;;;;10.70;4.97;;;;;;;26.48;47.94;96321.47;5096089;28;20527;-72
2023/08/18 10:00:30;;;;;;;8.23;5.43;;;;;;;26.78;46.94;96326.22;5092827;28;20455;-72
2023/08/18 10:02:59;;;;;;;8.43;4.93;;;;;;;26.84;46.83;96318.47;5091796;28;20787;-71
2023/08/18 10:05:26;;;;;;;10.63;4.30;;;;;;;27.60;45.06;96323.31;5090306;28;20412;-71
2023/08/18 10:07:52;;;;;;;4.30;3.60;;;;;;;27.40;45.44;96319.34;5090036;28;20437;-71
2023/08/18 10:10:18;;;;;;;10.83;4.20;;;;;;;27.69;45.71;96316.03;5089639;28;20447;-69
2023/08/18 10:12:44;;;;;;;5.47;3.83;;;;;;;27.14;45.38;96315.06;5076995;28;20205;-68
2023/08/18 10:15:11;;;;;;;14.93;8.47;;;;;;;26.68;48.21;96316.66;5068718;28;20404;-72
2023/08/18 10:17:37;;;;;;;10.77;6.70;;;;;;;26.88;48.21;96309.03;5068507;28;20419;-71
2023/08/18 10:20:03;;;;;;;8.60;6.10;;;;;;;26.99;48.08;96314.06;5068328;28;20436;-70
2023/08/18 10:22:32;;;;;;;7.47;5.53;;;;;;;27.21;48.41;96316.06;5068757;28;20467;-70
2023/08/18 10:24:58;;;;;;;7.13;3.50;;;;;;;26.93;49.32;96304.81;5068954;28;20307;-69
2023/08/18 10:27:26;;;;;;;7.07;4.00;;;;;;;26.92;48.91;96303.13;5069221;28;20462;-71
2023/08/18 10:29:54;;;;;;;8.43;4.50;;;;;;;26.81;49.72;96300.78;5069107;28;20823;-71
2023/08/18 10:32:22;;;;;;;13.23;5.63;;;;;;;27.01;49.83;96302.09;5069455;28;20523;-71
2023/08/18 10:34:50;;;;;;;4.67;4.27;;;;;;;27.29;48.71;96301.72;5069226;28;20487;-69
2023/08/18 10:37:16;;;;;;;5.70;4.07;;;;;;;27.50;48.07;96305.66;5069275;28;20408;-70
2023/08/18 10:39:41;;;;;;;9.33;4.23;;;;;;;26.99;48.19;96303.28;5068927;28;20434;-70
2023/08/18 10:42:13;;;;;;;4.37;3.40;;;;;;;27.23;47.34;96302.41;5068724;28;20244;-69
2023/08/18 10:44:55;;;;;;;7.83;3.57;;;;;;;26.91;44.70;96298.78;5068871;28;20303;-70
2023/08/18 10:47:31;;;;;;;6.07;3.10;;;;;;;27.09;45.08;96290.47;5068776;28;20408;-70
2023/08/18 10:49:59;;;;;;;6.03;3.87;;;;;;;27.19;46.41;96293.84;5068790;28;20463;-71
2023/08/18 10:52:27;;;;;;;5.33;4.27;;;;;;;27.53;45.82;96286.47;5068994;28;21093;-69
2023/08/18 10:54:52;;;;;;;7.03;3.97;;;;;;;27.71;45.75;96286.19;5068663;28;20412;-69
2023/08/18 10:57:18;;;;;;;4.97;4.40;;;;;;;27.65;46.48;96288.56;5068712;28;20767;-73
2023/08/18 10:59:43;;;;;;;5.80;4.70;;;;;;;27.89;46.07;96286.78;5068158;28;20225;-71
2023/08/18 11:02:08;;;;;;;4.80;4.20;;;;;;;27.58;45.31;96294.84;5068953;28;20221;-70
2023/08/18 11:04:34;;;;;;;6.27;4.07;;;;;;;27.12;44.78;96283.88;5068514;28;20196;-71
2023/08/18 11:06:59;;;;;;;4.20;3.80;;;;;;;26.70;46.23;96282.31;5068728;28;20243;-69
2023/08/18 11:09:25;;;;;;;4.90;3.30;;;;;;;27.28;45.77;96281.16;5067884;28;20198;-68
2023/08/18 11:11:50;;;;;;;5.57;4.13;;;;;;;27.22;46.92;96285.41;5073142;28;20166;-72
2023/08/18 11:14:15;;;;;;;4.97;4.13;;;;;;;27.50;46.44;96276.88;5088741;28;20169;-70
2023/08/18 11:16:42;;;;;;;12.40;4.33;;;;;;;27.55;46.21;96279.03;5089623;28;20252;-70
2023/08/18 11:19:07;;;;;;;13.63;4.33;;;;;;;27.52;46.51;96280.25;5088883;28;20576;-70
2023/08/18 11:21:34;;;;;;;3.97;3.17;;;;;;;27.66;45.58;96276.78;5088917;28;20446;-70
2023/08/18 11:24:00;;;;;;;5.93;4.13;;;;;;;27.63;46.47;96266.34;5089128;28;20646;-70
2023/08/18 11:26:25;;;;;;;4.87;4.37;;;;;;;27.26;48.26;96277.84;5088765;28;20407;-69